Time;durP1;ratioP1;P1;durP2;ratioP2;P2;SDS_P1;SDS_P2;PMS_P1;PMS_P2;Temp;Humidity;BMP_temperature;BMP_pressure;BME280_temperature;BME280_humidity;BME280_pressure;Samples;Min_cycle;Max_cycle;Signal;HPM_P1;HPM_P2
2022/05/01 00:01:27;;;;;;;33.63;22.73;;;11.50;99.90;;;;;;4999782;28;20517;-88
2022/05/01 00:03:54;;;;;;;30.70;22.87;;;11.60;99.90;;;;;;4999662;28;20483;-87
2022/05/01 00:06:21;;;;;;;31.10;21.73;;;11.60;99.90;;;;;;5001709;28;20534;-88
2022/05/01 00:08:48;;;;;;;33.10;24.80;;;11.70;99.90;;;;;;5003002;28;20553;-89
2022/05/01 00:11:16;;;;;;;30.63;21.97;;;11.60;99.90;;;;;;5004916;28;20430;-89
2022/05/01 00:13:44;;;;;;;32.87;23.20;;;11.70;99.90;;;;;;5004797;28;20479;-89
2022/05/01 00:16:11;;;;;;;35.07;23.50;;;11.80;99.90;;;;;;5004653;28;21009;-89
2022/05/01 00:18:38;;;;;;;31.57;24.03;;;11.80;99.90;;;;;;5005939;28;20455;-88
2022/05/01 00:21:06;;;;;;;32.93;24.63;;;11.70;99.90;;;;;;5004459;28;20470;-89
2022/05/01 00:23:33;;;;;;;33.57;23.93;;;11.80;99.90;;;;;;5004110;28;20990;-89
2022/05/01 00:26:01;;;;;;;31.93;23.30;;;11.80;99.90;;;;;;5003961;28;20410;-87
2022/05/01 00:28:32;;;;;;;32.03;23.60;;;11.70;99.90;;;;;;5006597;28;20569;-88
2022/05/01 00:30:59;;;;;;;32.27;24.70;;;11.80;99.90;;;;;;5006619;28;20447;-86
2022/05/01 00:36:29;;;;;;;33.13;23.30;;;11.80;99.90;;;;;;5004733;28;20913;-88
2022/05/01 00:38:57;;;;;;;32.10;22.90;;;11.70;99.90;;;;;;5002082;28;20448;-88
2022/05/01 00:41:26;;;;;;;31.27;23.93;;;11.60;99.90;;;;;;5016954;28;20428;-85
2022/05/01 00:44:00;;;;;;;33.13;23.30;;;11.60;99.90;;;;;;5019168;28;20453;-87
2022/05/01 00:46:27;;;;;;;32.20;22.77;;;11.80;99.90;;;;;;5017214;28;20463;-87
2022/05/01 00:48:54;;;;;;;32.83;21.63;;;11.80;99.90;;;;;;5014774;28;20446;-89
2022/05/01 00:51:21;;;;;;;33.10;23.37;;;12.00;99.90;;;;;;5000421;28;20453;-89
2022/05/01 00:53:52;;;;;;;31.30;23.33;;;11.90;99.90;;;;;;4999048;28;20479;-88
2022/05/01 00:56:19;;;;;;;32.67;23.63;;;11.70;99.90;;;;;;4999145;28;20453;-88
2022/05/01 00:58:47;;;;;;;36.43;23.97;;;11.60;99.90;;;;;;4998758;28;20410;-87
2022/05/01 01:01:15;;;;;;;28.77;22.83;;;11.60;99.90;;;;;;5009031;28;20503;-87
2022/05/01 01:03:42;;;;;;;30.67;24.10;;;11.50;99.90;;;;;;5017880;28;20445;-87
2022/05/01 01:06:09;;;;;;;33.50;23.97;;;11.50;99.90;;;;;;5000977;28;20425;-87
2022/05/01 01:08:37;;;;;;;32.93;24.27;;;11.60;99.90;;;;;;5000143;28;20489;-88
2022/05/01 01:11:04;;;;;;;33.33;23.13;;;11.60;99.90;;;;;;5002587;28;20429;-89
2022/05/01 01:13:31;;;;;;;36.60;23.90;;;11.50;99.90;;;;;;5009578;28;20468;-88
2022/05/01 01:15:58;;;;;;;36.30;25.53;;;11.50;99.90;;;;;;5016659;28;20447;-88
2022/05/01 01:18:27;;;;;;;38.10;26.20;;;11.80;99.90;;;;;;5014072;28;20430;-88
2022/05/01 01:20:55;;;;;;;33.57;23.07;;;11.90;99.90;;;;;;5004584;28;20454;-88
2022/05/01 01:23:24;;;;;;;34.03;24.50;;;11.90;99.90;;;;;;4999780;28;20489;-88
2022/05/01 01:25:51;;;;;;;36.30;24.60;;;11.80;99.90;;;;;;4998326;28;20395;-88
2022/05/01 01:28:19;;;;;;;45.40;26.67;;;11.70;99.90;;;;;;4998292;28;20747;-87
2022/05/01 01:33:31;;;;;;;34.33;23.33;;;11.80;99.90;;;;;;4998178;28;20454;-88
2022/05/01 01:36:02;;;;;;;36.20;23.77;;;11.70;99.90;;;;;;4997205;28;20522;-88
2022/05/01 01:38:29;;;;;;;33.70;25.23;;;11.80;99.90;;;;;;4998404;28;20424;-88
2022/05/01 01:40:59;;;;;;;34.40;25.60;;;11.90;99.90;;;;;;4998160;28;20822;-88
2022/05/01 01:43:29;;;;;;;38.90;26.97;;;11.90;99.90;;;;;;4998086;28;21022;-88
2022/05/01 01:45:56;;;;;;;34.30;24.33;;;11.70;99.90;;;;;;4998658;28;20447;-88
2022/05/01 01:48:24;;;;;;;40.33;26.00;;;11.70;99.90;;;;;;4997014;28;20538;-88
2022/05/01 01:51:00;;;;;;;33.77;23.07;;;11.80;99.90;;;;;;4997375;28;20880;-88
2022/05/01 01:53:28;;;;;;;37.63;24.93;;;11.60;99.90;;;;;;4996782;28;20441;-88
2022/05/01 01:55:57;;;;;;;41.87;26.03;;;11.50;99.90;;;;;;5001071;28;20465;-87
2022/05/01 01:58:24;;;;;;;30.13;21.90;;;11.60;99.90;;;;;;4998704;28;20429;-88
2022/05/01 02:00:51;;;;;;;37.60;24.57;;;11.60;99.90;;;;;;4996990;28;20430;-87
2022/05/01 02:03:18;;;;;;;34.97;24.17;;;11.70;99.90;;;;;;5004867;28;20465;-86
2022/05/01 02:05:47;;;;;;;30.07;22.60;;;11.80;99.90;;;;;;5018127;28;20472;-86
2022/05/01 02:08:16;;;;;;;33.13;23.53;;;11.90;99.90;;;;;;5011893;28;20438;-88
2022/05/01 02:10:43;;;;;;;33.20;22.77;;;11.80;99.90;;;;;;5014518;28;20471;-86
2022/05/01 02:13:11;;;;;;;33.43;22.60;;;11.80;99.90;;;;;;5013551;28;20438;-88
2022/05/01 02:15:38;;;;;;;33.27;23.57;;;11.70;99.90;;;;;;4999873;28;20453;-88
2022/05/01 02:18:06;;;;;;;36.40;22.53;;;11.90;99.90;;;;;;5001207;28;20513;-87
2022/05/01 02:23:17;;;;;;;36.00;24.87;;;11.60;99.90;;;;;;5016655;28;20498;-83
2022/05/01 02:25:44;;;;;;;33.43;24.67;;;11.50;99.90;;;;;;5014467;28;20418;-89
2022/05/01 02:28:11;;;;;;;32.20;23.33;;;11.50;99.90;;;;;;4996827;28;20445;-89
2022/05/01 02:30:38;;;;;;;35.20;23.40;;;11.50;99.90;;;;;;4996832;28;20470;-87
2022/05/01 02:33:06;;;;;;;28.80;22.37;;;11.50;99.90;;;;;;5001924;28;20469;-88
2022/05/01 02:35:33;;;;;;;31.77;21.97;;;11.80;99.90;;;;;;5016550;28;20438;-87
2022/05/01 02:38:01;;;;;;;33.33;23.43;;;11.90;99.90;;;;;;4999789;28;20543;-87
2022/05/01 02:40:30;;;;;;;33.87;23.30;;;11.80;99.90;;;;;;5001888;28;20936;-89
2022/05/01 02:42:58;;;;;;;33.23;23.30;;;11.80;99.90;;;;;;5003724;28;20505;-88
2022/05/01 02:45:25;;;;;;;32.23;21.90;;;11.70;99.90;;;;;;5002831;28;20478;-89
2022/05/01 02:47:52;;;;;;;35.10;25.80;;;11.50;99.90;;;;;;5001105;28;20440;-89
2022/05/01 02:50:19;;;;;;;37.07;25.17;;;11.30;99.90;;;;;;5002316;28;20488;-89
2022/05/01 02:52:45;;;;;;;34.20;23.20;;;11.30;99.90;;;;;;5002179;28;20917;-89
2022/05/01 02:55:14;;;;;;;36.70;25.13;;;11.40;99.90;;;;;;5001699;28;20518;-89
2022/05/01 02:57:42;;;;;;;34.80;23.90;;;11.50;99.90;;;;;;5004777;28;20521;-89
2022/05/01 03:00:16;;;;;;;33.83;23.47;;;11.50;99.90;;;;;;5001017;28;20522;-90
2022/05/01 03:02:43;;;;;;;35.40;23.93;;;11.50;99.90;;;;;;5001884;28;20433;-89
2022/05/01 03:05:10;;;;;;;33.80;23.90;;;11.40;99.90;;;;;;5012303;28;20474;-88
2022/05/01 03:07:37;;;;;;;33.07;23.13;;;11.20;99.90;;;;;;5019875;28;20454;-89
2022/05/01 03:10:05;;;;;;;37.10;24.53;;;11.30;99.90;;;;;;5008508;28;20462;-87
2022/05/01 03:12:32;;;;;;;40.20;26.27;;;11.30;99.90;;;;;;5001278;28;20530;-88
2022/05/01 03:15:02;;;;;;;37.07;23.27;;;11.20;99.90;;;;;;5000845;28;20444;-88
2022/05/01 03:22:10;;;;;;;35.57;22.40;;;11.30;99.90;;;;;;5000044;28;20429;-88
2022/05/01 03:23:00;;;;;;;37.60;24.90;;;11.60;99.90;;;;;;5000084;28;20863;-87
2022/05/01 03:25:27;;;;;;;35.17;24.03;;;11.40;99.90;;;;;;5000604;28;20424;-87
2022/05/01 03:27:54;;;;;;;37.10;25.00;;;11.30;99.90;;;;;;4999682;28;20430;-87
2022/05/01 03:30:23;;;;;;;37.47;26.20;;;11.30;99.90;;;;;;4999473;28;20570;-88
2022/05/01 03:32:50;;;;;;;41.47;25.20;;;11.20;99.90;;;;;;4999496;28;20969;-87
2022/05/01 03:35:17;;;;;;;40.10;25.50;;;11.20;99.90;;;;;;5000220;28;20433;-87
2022/05/01 03:37:45;;;;;;;37.40;25.70;;;11.20;99.90;;;;;;4999775;28;20440;-88
2022/05/01 03:40:16;;;;;;;41.10;25.83;;;11.20;99.90;;;;;;4999364;28;20529;-87
2022/05/01 03:42:44;;;;;;;36.57;24.43;;;11.20;99.90;;;;;;4999604;28;20546;-88
2022/05/01 03:45:11;;;;;;;40.63;26.27;;;11.30;99.90;;;;;;4999823;28;20430;-87
2022/05/01 03:47:40;;;;;;;38.10;25.67;;;11.40;99.90;;;;;;5000341;28;20542;-87
2022/05/01 03:50:07;;;;;;;34.10;25.03;;;11.40;99.90;;;;;;4999974;28;20453;-88
2022/05/01 03:52:34;;;;;;;36.80;26.70;;;11.30;99.90;;;;;;5003824;28;20432;-87
2022/05/01 03:55:01;;;;;;;38.53;26.53;;;11.20;99.90;;;;;;5015519;28;20473;-89
2022/05/01 03:57:28;;;;;;;37.77;26.60;;;11.10;99.90;;;;;;5012092;28;20521;-89
2022/05/01 03:59:55;;;;;;;34.07;25.00;;;11.20;99.90;;;;;;5005733;28;20794;-87
2022/05/01 04:02:22;;;;;;;41.03;27.27;;;11.10;99.90;;;;;;5002068;28;20513;-87
2022/05/01 04:04:52;;;;;;;45.93;28.47;;;11.00;99.90;;;;;;5012425;28;20449;-88
2022/05/01 04:07:19;;;;;;;43.20;26.57;;;11.20;99.90;;;;;;5000104;28;20463;-89
2022/05/01 04:09:45;;;;;;;41.40;28.30;;;11.30;99.90;;;;;;4998965;28;20458;-88
2022/05/01 04:12:13;;;;;;;48.70;28.93;;;11.40;99.90;;;;;;4998854;28;20869;-88
2022/05/01 04:14:40;;;;;;;52.57;29.47;;;11.30;99.90;;;;;;4999141;28;20489;-89
2022/05/01 04:17:06;;;;;;;36.93;24.90;;;11.30;99.90;;;;;;4999254;28;20609;-89
2022/05/01 04:19:34;;;;;;;40.73;25.27;;;11.40;99.90;;;;;;4999048;28;20840;-88
2022/05/01 04:22:02;;;;;;;41.33;24.97;;;11.40;99.90;;;;;;4999666;28;20462;-88
2022/05/01 04:24:29;;;;;;;39.60;24.77;;;11.40;99.90;;;;;;5000509;28;20461;-89
2022/05/01 04:26:56;;;;;;;39.40;26.77;;;11.30;99.90;;;;;;4999691;28;20474;-89
2022/05/01 04:29:38;;;;;;;42.77;27.10;;;11.20;99.90;;;;;;5000524;28;20925;-88
2022/05/01 04:32:06;;;;;;;42.63;26.10;;;11.20;99.90;;;;;;5000327;28;20437;-88
2022/05/01 04:34:34;;;;;;;38.00;27.40;;;11.30;99.90;;;;;;5000910;28;21013;-89
2022/05/01 04:37:02;;;;;;;37.37;24.80;;;11.00;99.90;;;;;;5003480;28;20451;-89
2022/05/01 04:39:29;;;;;;;34.60;24.40;;;11.00;99.90;;;;;;5015246;28;20478;-89
2022/05/01 04:41:56;;;;;;;34.77;23.23;;;11.10;99.90;;;;;;5019242;28;20417;-87
2022/05/01 04:44:23;;;;;;;38.17;24.97;;;11.00;99.90;;;;;;5017566;28;20505;-89
2022/05/01 04:46:50;;;;;;;39.70;27.83;;;11.00;99.90;;;;;;5018770;28;20493;-87
2022/05/01 04:49:18;;;;;;;37.00;25.00;;;10.90;99.90;;;;;;5017857;28;20455;-89
2022/05/01 04:51:47;;;;;;;41.43;26.77;;;10.90;99.90;;;;;;5002592;28;20476;-89
2022/05/01 04:54:18;;;;;;;36.77;26.00;;;10.70;99.90;;;;;;4998667;28;20509;-89
2022/05/01 04:59:29;;;;;;;39.00;25.67;;;11.10;99.90;;;;;;4998786;28;20442;-89
2022/05/01 05:01:56;;;;;;;36.10;25.07;;;11.10;99.90;;;;;;4997869;28;20501;-89
2022/05/01 05:04:23;;;;;;;38.83;25.10;;;11.10;99.90;;;;;;4999024;28;20464;-88
2022/05/01 05:06:52;;;;;;;35.20;25.03;;;11.20;99.90;;;;;;4999244;28;20801;-88
2022/05/01 05:12:07;;;;;;;36.80;23.50;;;11.00;99.90;;;;;;5018974;28;20402;-86
2022/05/01 05:14:34;;;;;;;36.77;21.73;;;11.20;99.90;;;;;;5007063;28;20426;-88
2022/05/01 05:17:01;;;;;;;36.27;24.57;;;11.30;99.90;;;;;;5000501;28;20917;-88
2022/05/01 05:19:28;;;;;;;34.77;23.40;;;11.20;99.90;;;;;;5000028;28;20475;-88
2022/05/01 05:21:55;;;;;;;41.43;24.87;;;11.20;99.90;;;;;;4999619;28;20933;-88
2022/05/01 05:24:23;;;;;;;34.50;24.63;;;11.20;99.90;;;;;;5042958;22;21018;-89
2022/05/01 05:26:50;;;;;;;35.20;24.63;;;11.00;99.90;;;;;;5036482;28;20511;-87
2022/05/01 05:29:22;;;;;;;38.37;25.67;;;11.00;99.90;;;;;;5037147;28;20469;-89
2022/05/01 05:31:49;;;;;;;35.97;24.50;;;11.00;99.90;;;;;;5037714;28;20494;-88
2022/05/01 05:34:16;;;;;;;35.40;23.80;;;11.20;99.90;;;;;;5036050;28;20448;-88
2022/05/01 05:36:43;;;;;;;34.03;24.70;;;11.30;99.90;;;;;;5036519;28;20830;-88
2022/05/01 05:39:10;;;;;;;35.90;25.40;;;11.20;99.90;;;;;;5037611;28;20467;-88
2022/05/01 05:41:38;;;;;;;38.70;25.30;;;11.20;99.90;;;;;;5038509;28;20498;-89
2022/05/01 05:44:05;;;;;;;35.83;25.40;;;11.10;99.90;;;;;;5035957;28;20480;-89
2022/05/01 05:46:32;;;;;;;36.37;24.20;;;11.10;99.90;;;;;;5035241;28;20439;-89
2022/05/01 05:51:41;;;;;;;35.07;25.17;;;11.10;99.90;;;;;;5036192;28;20531;-89
2022/05/01 05:54:10;;;;;;;35.73;25.53;;;11.00;99.90;;;;;;5034619;28;20440;-88
2022/05/01 05:56:39;;;;;;;32.07;24.20;;;11.10;99.90;;;;;;5037818;28;20434;-88
2022/05/01 05:59:06;;;;;;;36.10;25.40;;;11.30;99.90;;;;;;5036400;28;20986;-88
2022/05/01 06:01:33;;;;;;;35.10;24.13;;;11.30;99.90;;;;;;5046594;28;20906;-88
2022/05/01 06:04:00;;;;;;;34.77;25.87;;;11.40;99.90;;;;;;5038237;28;20493;-88
2022/05/01 06:06:27;;;;;;;35.73;25.20;;;11.30;99.90;;;;;;5049074;28;20475;-88
2022/05/01 06:08:54;;;;;;;40.40;23.63;;;11.30;99.90;;;;;;5051437;28;20455;-88
2022/05/01 06:11:21;;;;;;;34.27;25.70;;;11.30;99.90;;;;;;5055050;28;20484;-88
2022/05/01 06:13:51;;;;;;;37.30;25.60;;;11.20;99.90;;;;;;5054432;28;20458;-88
2022/05/01 06:16:18;;;;;;;36.00;25.53;;;11.30;99.90;;;;;;5046089;28;20766;-88
2022/05/01 06:18:45;;;;;;;42.67;26.40;;;11.40;99.90;;;;;;5045309;28;20451;-88
2022/05/01 06:21:12;;;;;;;37.03;22.80;;;11.30;99.90;;;;;;5042489;28;20445;-88
2022/05/01 06:23:40;;;;;;;36.03;23.07;;;11.40;99.90;;;;;;5042351;28;20448;-87
2022/05/01 06:26:08;;;;;;;31.57;22.40;;;11.50;99.90;;;;;;5051568;28;20439;-89
2022/05/01 06:28:35;;;;;;;30.97;22.57;;;11.70;99.90;;;;;;5053097;28;20445;-88
2022/05/01 06:31:04;;;;;;;32.40;23.30;;;11.70;99.90;;;;;;5048841;28;20572;-88
2022/05/01 06:33:34;;;;;;;36.17;22.80;;;11.70;99.90;;;;;;5042053;28;20428;-88
2022/05/01 06:36:01;;;;;;;29.17;22.67;;;11.70;99.90;;;;;;5041958;28;20491;-88
2022/05/01 06:38:29;;;;;;;31.20;23.03;;;11.70;99.90;;;;;;5040300;28;20499;-88
2022/05/01 06:40:56;;;;;;;28.70;21.53;;;11.70;99.90;;;;;;5048305;28;20424;-88
2022/05/01 06:43:27;;;;;;;31.40;23.90;;;11.70;99.90;;;;;;5039817;28;20424;-88
2022/05/01 06:45:59;;;;;;;29.33;22.40;;;11.70;99.90;;;;;;5039933;28;20463;-87
2022/05/01 06:48:31;;;;;;;29.10;21.90;;;11.80;99.90;;;;;;5039058;28;20410;-87
2022/05/01 06:50:59;;;;;;;30.77;22.40;;;11.70;99.90;;;;;;5038958;28;20481;-87
2022/05/01 06:53:26;;;;;;;29.20;20.70;;;11.80;99.90;;;;;;5039385;28;20610;-89
2022/05/01 06:55:56;;;;;;;29.43;21.40;;;12.00;99.90;;;;;;5042729;28;20999;-88
2022/05/01 06:58:24;;;;;;;32.90;21.70;;;12.00;99.90;;;;;;5051237;28;20456;-88
2022/05/01 07:00:52;;;;;;;33.23;21.77;;;12.10;99.90;;;;;;5041352;28;20486;-88
2022/05/01 07:03:19;;;;;;;32.90;21.83;;;12.00;99.90;;;;;;5039460;28;20484;-89
2022/05/01 07:05:54;;;;;;;27.97;20.83;;;11.90;99.90;;;;;;5039324;28;20568;-89
2022/05/01 07:08:23;;;;;;;29.53;21.13;;;11.90;99.90;;;;;;5039945;28;20499;-88
2022/05/01 07:10:50;;;;;;;30.53;22.70;;;11.90;99.90;;;;;;5038520;28;20451;-88
2022/05/01 07:13:17;;;;;;;30.67;20.80;;;11.90;99.90;;;;;;5044406;28;20448;-88
2022/05/01 07:15:46;;;;;;;28.17;20.93;;;12.00;99.90;;;;;;5056414;28;20791;-87
2022/05/01 07:18:13;;;;;;;28.77;20.47;;;12.00;99.90;;;;;;5044603;28;20467;-88
2022/05/01 07:20:41;;;;;;;31.57;22.10;;;12.20;99.90;;;;;;5049935;28;20404;-88
2022/05/01 07:23:21;;;;;;;30.23;21.63;;;12.10;99.90;;;;;;5041720;28;20867;-86
2022/05/01 07:25:48;;;;;;;29.47;22.23;;;12.20;99.90;;;;;;5039321;28;20404;-88
2022/05/01 07:28:15;;;;;;;30.73;20.03;;;12.20;99.90;;;;;;5039013;28;20423;-87
2022/05/01 07:30:42;;;;;;;29.97;21.90;;;12.10;99.90;;;;;;5039688;28;20554;-87
2022/05/01 07:33:10;;;;;;;32.57;22.37;;;12.30;99.90;;;;;;5039307;28;20451;-88
2022/05/01 07:35:51;;;;;;;28.47;19.83;;;12.40;99.90;;;;;;5045668;28;20484;-88
2022/05/01 07:45:46;;;;;;;;;;;;;;;;;;;;;
2022/05/01 07:51:45;;;;;;;25.70;19.30;;;12.70;99.90;;;;;;4960451;28;20456;-90
2022/05/01 07:54:15;;;;;;;25.70;19.33;;;12.60;99.90;;;;;;5039441;28;20840;-87
2022/05/01 07:56:42;;;;;;;26.17;19.67;;;12.70;99.90;;;;;;5039483;28;20440;-87
2022/05/01 07:59:12;;;;;;;29.50;21.37;;;12.70;99.90;;;;;;5041466;28;20478;-88
2022/05/01 08:01:39;;;;;;;26.80;18.40;;;12.80;99.90;;;;;;5043140;28;20478;-87
2022/05/01 08:06:57;;;;;;;25.13;19.13;;;13.20;99.90;;;;;;5049341;28;20388;-87
2022/05/01 08:12:29;;;;;;;28.00;21.30;;;13.00;99.90;;;;;;5031745;28;20459;-88
2022/05/01 08:15:02;;;;;;;27.30;18.23;;;13.00;99.90;;;;;;5042680;28;20538;-88
2022/05/01 08:17:30;;;;;;;26.93;18.40;;;13.20;99.90;;;;;;5042120;28;20427;-86
2022/05/01 08:22:43;;;;;;;25.03;16.17;;;13.30;99.90;;;;;;5043701;28;20384;-87
2022/05/01 08:25:10;;;;;;;21.77;15.50;;;13.50;99.90;;;;;;5054019;28;20481;-88
2022/05/01 08:27:39;;;;;;;21.30;16.30;;;13.30;99.90;;;;;;5045552;28;20417;-87
2022/05/01 08:30:10;;;;;;;24.33;17.47;;;13.20;99.90;;;;;;5046761;28;20484;-87
2022/05/01 08:32:37;;;;;;;20.03;15.50;;;13.10;99.90;;;;;;5046979;28;20462;-87
2022/05/01 08:35:13;;;;;;;20.97;16.10;;;13.30;99.90;;;;;;5046348;28;20444;-87
2022/05/01 08:37:52;;;;;;;20.10;16.13;;;13.40;99.90;;;;;;5047061;28;20408;-86
2022/05/01 08:40:22;;;;;;;21.60;17.03;;;13.50;99.90;;;;;;5045177;28;20516;-87
2022/05/01 08:42:51;;;;;;;20.50;16.90;;;13.60;99.90;;;;;;5046102;28;20545;-87
2022/05/01 08:49:04;;;;;;;25.67;18.57;;;13.80;99.90;;;;;;5041356;28;20437;-88
2022/05/01 08:51:37;;;;;;;19.90;15.87;;;14.20;99.90;;;;;;5043008;28;20454;-87
2022/05/01 08:54:13;;;;;;;20.23;16.80;;;14.30;99.90;;;;;;5046420;28;20461;-87
2022/05/01 08:56:42;;;;;;;21.57;17.03;;;14.40;99.90;;;;;;5042600;28;20452;-87
2022/05/01 08:59:17;;;;;;;18.83;16.00;;;14.20;99.90;;;;;;5049475;28;20441;-86
2022/05/01 09:01:53;;;;;;;23.30;15.70;;;14.10;99.90;;;;;;5048405;28;20443;-87
2022/05/01 09:04:21;;;;;;;23.20;16.63;;;13.90;99.90;;;;;;5045420;28;20511;-88
2022/05/01 09:06:48;;;;;;;22.37;15.93;;;13.70;99.90;;;;;;5049947;28;20457;-86
2022/05/01 09:09:20;;;;;;;21.37;16.20;;;13.70;99.90;;;;;;5053612;28;20516;-86
2022/05/01 09:14:40;;;;;;;19.27;15.70;;;13.80;99.90;;;;;;5045513;28;20423;-87
2022/05/01 09:17:25;;;;;;;18.83;15.47;;;13.70;99.90;;;;;;5047021;28;20423;-86
2022/05/01 09:19:54;;;;;;;22.90;16.77;;;13.80;99.90;;;;;;5043508;28;20455;-86
2022/05/01 09:22:24;;;;;;;19.00;14.43;;;13.80;99.90;;;;;;5046773;28;20472;-87
2022/05/01 09:24:55;;;;;;;19.70;16.00;;;13.80;99.90;;;;;;5051776;28;20469;-87
2022/05/01 09:27:28;;;;;;;21.80;16.07;;;13.90;99.90;;;;;;5042568;28;20434;-87
2022/05/01 09:30:11;;;;;;;20.87;15.30;;;14.10;99.90;;;;;;5047697;28;20437;-87
2022/05/01 09:32:40;;;;;;;18.77;15.63;;;14.30;99.90;;;;;;5044822;28;20460;-88
2022/05/01 09:35:13;;;;;;;24.17;16.93;;;14.20;99.90;;;;;;5042357;28;20474;-87
2022/05/01 09:37:46;;;;;;;19.50;14.87;;;14.30;99.90;;;;;;5041485;28;20442;-87
2022/05/01 09:40:35;;;;;;;19.43;16.13;;;14.40;99.90;;;;;;5041294;28;20434;-87
2022/05/01 09:43:09;;;;;;;19.90;15.50;;;14.50;99.90;;;;;;5041540;28;20438;-88
2022/05/01 09:45:39;;;;;;;17.67;14.60;;;14.50;99.90;;;;;;5040758;28;20442;-88
2022/05/01 09:48:20;;;;;;;20.30;15.13;;;14.70;99.90;;;;;;5044676;28;20408;-87
2022/05/01 09:50:51;;;;;;;21.57;16.60;;;14.60;99.90;;;;;;5051289;28;20430;-87
2022/05/01 09:53:41;;;;;;;22.80;15.90;;;14.50;99.90;;;;;;5048915;28;20481;-86
2022/05/01 09:56:15;;;;;;;20.53;15.77;;;14.70;99.90;;;;;;5044554;28;20442;-87
2022/05/01 09:58:44;;;;;;;20.87;16.00;;;15.00;99.90;;;;;;5044010;28;20408;-86
2022/05/01 10:01:15;;;;;;;18.90;15.90;;;15.00;99.90;;;;;;5042936;28;20532;-88
2022/05/01 10:03:46;;;;;;;21.30;15.90;;;15.00;99.90;;;;;;5043807;28;20543;-87
2022/05/01 10:06:24;;;;;;;19.47;16.00;;;15.00;99.90;;;;;;5043460;28;20438;-87
2022/05/01 10:08:51;;;;;;;20.33;16.10;;;14.80;99.90;;;;;;5043292;28;20412;-87
2022/05/01 10:11:20;;;;;;;20.70;15.47;;;14.70;99.90;;;;;;5043386;28;20458;-87
2022/05/01 10:13:47;;;;;;;20.93;15.03;;;14.70;99.90;;;;;;5042181;28;20775;-87
2022/05/01 10:16:16;;;;;;;19.50;15.90;;;14.60;99.90;;;;;;5042887;28;20450;-85
2022/05/01 10:18:45;;;;;;;23.33;16.23;;;14.50;99.90;;;;;;5041686;28;20436;-86
2022/05/01 10:21:13;;;;;;;20.23;15.70;;;14.30;99.90;;;;;;5043332;28;20507;-87
2022/05/01 10:23:41;;;;;;;19.20;14.97;;;14.30;99.90;;;;;;5049421;28;20500;-87
2022/05/01 10:26:17;;;;;;;18.90;13.50;;;14.60;99.90;;;;;;5050931;28;20409;-86
2022/05/01 10:29:10;;;;;;;18.77;14.97;;;14.70;99.90;;;;;;5048512;28;20435;-87
2022/05/01 10:35:04;;;;;;;16.60;13.00;;;15.10;99.90;;;;;;5042735;28;20476;-86
2022/05/01 10:38:00;;;;;;;17.57;14.47;;;15.10;99.90;;;;;;5042923;28;20437;-86
2022/05/01 10:40:32;;;;;;;15.90;13.70;;;15.30;99.90;;;;;;5037369;28;20484;-86
2022/05/01 10:43:02;;;;;;;18.77;13.70;;;15.00;99.90;;;;;;5053590;28;20458;-87
2022/05/01 10:45:45;;;;;;;15.77;12.97;;;15.10;99.90;;;;;;5042284;28;20466;-86
2022/05/01 10:48:15;;;;;;;16.80;13.67;;;15.10;99.90;;;;;;5041509;28;20475;-87
2022/05/01 10:50:42;;;;;;;14.97;12.47;;;15.20;99.90;;;;;;5044879;28;20442;-87
2022/05/01 10:53:12;;;;;;;15.30;12.53;;;15.40;99.90;;;;;;5047355;28;20510;-87
2022/05/01 10:55:44;;;;;;;16.63;14.07;;;15.50;99.90;;;;;;5045840;28;20496;-87
2022/05/01 10:58:25;;;;;;;15.73;12.90;;;15.40;99.90;;;;;;5044978;28;20427;-86
2022/05/01 11:01:00;;;;;;;15.23;12.53;;;15.40;99.90;;;;;;5048021;28;20445;-87
2022/05/01 11:03:33;;;;;;;17.07;12.93;;;15.20;99.90;;;;;;5053999;28;20470;-86
2022/05/01 11:06:09;;;;;;;15.47;12.07;;;15.10;99.90;;;;;;5051849;28;20811;-86
2022/05/01 11:08:38;;;;;;;16.63;13.00;;;15.20;99.90;;;;;;5048143;28;20466;-87
2022/05/01 11:11:07;;;;;;;17.73;13.90;;;15.40;99.90;;;;;;5046691;28;20432;-86
2022/05/01 11:13:37;;;;;;;18.80;13.87;;;15.60;99.90;;;;;;5053737;28;20494;-86
2022/05/01 11:16:06;;;;;;;16.03;12.70;;;15.60;99.90;;;;;;5054345;28;20516;-87
2022/05/01 11:18:36;;;;;;;13.73;11.70;;;15.60;99.90;;;;;;5054029;28;20431;-87
2022/05/01 11:21:37;;;;;;;16.63;12.87;;;15.70;99.90;;;;;;5047122;28;20446;-87
2022/05/01 11:24:05;;;;;;;15.73;11.93;;;15.90;99.90;;;;;;5094389;22;20845;-88
2022/05/01 11:26:33;;;;;;;15.53;11.67;;;16.10;99.90;;;;;;5053980;28;20435;-87
2022/05/01 11:29:10;;;;;;;15.70;12.00;;;16.10;99.90;;;;;;5058053;28;20428;-88
2022/05/01 11:31:49;;;;;;;14.70;12.57;;;16.00;99.90;;;;;;5047451;28;20446;-87
2022/05/01 11:34:34;;;;;;;15.90;13.20;;;15.90;99.90;;;;;;5045772;28;20469;-88
2022/05/01 11:37:04;;;;;;;14.37;12.00;;;16.00;99.90;;;;;;5046665;28;20434;-89
2022/05/01 11:40:08;;;;;;;14.60;12.73;;;16.10;99.90;;;;;;5048915;28;20438;-91
2022/05/01 11:42:37;;;;;;;16.30;13.03;;;16.00;99.50;;;;;;5046815;28;20445;-89
2022/05/01 11:45:05;;;;;;;15.40;12.53;;;15.90;99.80;;;;;;5046788;28;20447;-87
2022/05/01 11:47:36;;;;;;;14.70;10.17;;;15.80;99.80;;;;;;5053419;28;20434;-87
2022/05/01 11:50:05;;;;;;;13.50;10.60;;;16.00;99.10;;;;;;5050359;28;20463;-87
2022/05/01 11:52:36;;;;;;;16.23;11.53;;;16.30;98.30;;;;;;5047374;28;20489;-86
2022/05/01 11:55:08;;;;;;;14.67;11.63;;;16.30;98.00;;;;;;5050512;28;20474;-89
2022/05/01 12:03:11;;;;;;;15.20;11.40;;;16.50;97.80;;;;;;5048229;28;20516;-87
2022/05/01 12:05:45;;;;;;;15.63;11.10;;;16.50;97.30;;;;;;5045846;28;20960;-89
2022/05/01 12:08:12;;;;;;;13.80;9.80;;;16.60;97.20;;;;;;5043547;28;20520;-87
2022/05/01 12:10:43;;;;;;;15.90;12.00;;;16.70;97.20;;;;;;5045003;28;20465;-87
2022/05/01 12:13:17;;;;;;;13.90;11.60;;;16.60;97.30;;;;;;5043126;28;20512;-88
2022/05/01 12:15:44;;;;;;;12.50;10.57;;;16.50;97.10;;;;;;5042026;28;20472;-88
2022/05/01 12:18:12;;;;;;;16.30;11.63;;;16.40;97.00;;;;;;5042678;28;20449;-88
2022/05/01 12:20:40;;;;;;;14.53;11.20;;;16.40;97.20;;;;;;5043103;28;20503;-88
2022/05/01 12:23:12;;;;;;;14.27;11.20;;;16.40;97.20;;;;;;5044814;28;20521;-87
2022/05/01 12:25:42;;;;;;;12.63;10.50;;;16.40;97.20;;;;;;5050240;28;20485;-88
2022/05/01 12:28:11;;;;;;;13.63;11.10;;;16.50;96.70;;;;;;5053264;28;20479;-88
2022/05/01 12:30:38;;;;;;;15.63;11.40;;;16.50;97.00;;;;;;5054418;28;20587;-88
2022/05/01 12:33:05;;;;;;;13.40;10.17;;;16.70;97.10;;;;;;5058428;28;20505;-85
2022/05/01 12:35:55;;;;;;;14.70;11.53;;;16.80;96.80;;;;;;5054626;28;21006;-88
2022/05/01 12:38:22;;;;;;;17.77;12.90;;;16.90;97.10;;;;;;5055271;28;20440;-86
2022/05/01 12:43:53;;;;;;;15.87;13.20;;;17.00;97.30;;;;;;5048617;28;20486;-88
2022/05/01 12:46:24;;;;;;;16.10;12.03;;;16.90;97.30;;;;;;5049208;28;20430;-89
2022/05/01 12:48:52;;;;;;;15.20;12.27;;;17.00;97.20;;;;;;5049167;28;20473;-89
2022/05/01 12:51:20;;;;;;;19.63;12.87;;;16.90;97.40;;;;;;5050511;28;20480;-87
2022/05/01 12:53:48;;;;;;;14.93;11.13;;;17.00;97.00;;;;;;5050203;28;20592;-88
2022/05/01 12:56:21;;;;;;;14.70;12.10;;;16.90;96.90;;;;;;5052638;28;20474;-87
2022/05/01 12:58:49;;;;;;;18.03;12.87;;;16.90;96.40;;;;;;5055113;28;20457;-90
2022/05/01 13:01:24;;;;;;;14.90;12.93;;;16.60;96.90;;;;;;5048526;28;20689;-88
2022/05/01 13:03:52;;;;;;;13.43;11.50;;;16.40;97.30;;;;;;5044730;28;20465;-89
2022/05/01 13:06:22;;;;;;;18.53;12.43;;;16.40;97.10;;;;;;5048703;28;20420;-88
2022/05/01 13:09:06;;;;;;;12.37;10.77;;;16.50;97.30;;;;;;5056026;28;20488;-87
2022/05/01 13:11:34;;;;;;;15.07;11.23;;;16.60;97.00;;;;;;5054816;28;20425;-88
2022/05/01 13:14:03;;;;;;;13.30;10.90;;;16.50;96.20;;;;;;5046954;28;20481;-89
2022/05/01 13:16:42;;;;;;;17.00;10.63;;;16.60;96.20;;;;;;5051649;28;20453;-89
2022/05/01 13:19:10;;;;;;;14.80;10.77;;;16.60;95.70;;;;;;5050682;28;20465;-89
2022/05/01 13:21:41;;;;;;;12.50;10.23;;;16.70;95.40;;;;;;5048539;28;20491;-89
2022/05/01 13:24:10;;;;;;;15.70;10.50;;;16.80;95.00;;;;;;5042315;28;20844;-89
2022/05/01 13:26:37;;;;;;;12.80;9.60;;;17.00;94.90;;;;;;5043040;28;20457;-89
2022/05/01 13:29:07;;;;;;;13.90;10.90;;;17.20;94.80;;;;;;5052334;28;20434;-89
2022/05/01 13:31:34;;;;;;;13.23;10.53;;;17.30;94.50;;;;;;5055443;28;20444;-87
2022/05/01 13:34:01;;;;;;;11.57;9.60;;;17.50;94.10;;;;;;5056780;28;20518;-88
2022/05/01 13:36:28;;;;;;;12.77;10.00;;;17.60;93.90;;;;;;5046383;28;20447;-88
2022/05/01 13:38:58;;;;;;;12.20;10.23;;;17.60;93.70;;;;;;5042076;28;20435;-90